Time;durP1;ratioP1;P1;durP2;ratioP2;P2;SDS_P1;SDS_P2;PMS_P1;PMS_P2;Temp;Humidity;BMP_temperature;BMP_pressure;BME280_temperature;BME280_humidity;BME280_pressure;Samples;Min_cycle;Max_cycle;Signal;HPM_P1;HPM_P2
2021/07/24 12:24:46;;;;;;;4.30;2.40;;;24.70;48.00;;;;;;5150883;27;20354;-83
2021/07/24 12:27:20;;;;;;;2.63;2.25;;;23.90;47.50;;;;;;5129404;28;20497;-83
2021/07/24 12:29:56;;;;;;;4.93;2.38;;;23.60;48.30;;;;;;5130322;28;20053;-85
2021/07/24 12:32:36;;;;;;;7.03;2.30;;;23.30;48.90;;;;;;5129178;28;20485;-84
2021/07/24 12:35:17;;;;;;;5.85;2.38;;;23.00;49.40;;;;;;5128841;28;20043;-84
2021/07/24 12:37:45;;;;;;;7.90;2.75;;;22.80;50.00;;;;;;5129425;28;20050;-83
2021/07/24 12:40:18;;;;;;;4.03;2.50;;;22.60;50.40;;;;;;5130451;28;20066;-83
2021/07/24 12:42:47;;;;;;;5.13;2.55;;;22.40;51.00;;;;;;5110976;28;20417;-82
2021/07/24 12:45:32;;;;;;;5.78;2.60;;;22.20;51.50;;;;;;5109887;28;20147;-83
2021/07/24 12:48:19;;;;;;;5.65;3.13;;;22.00;52.10;;;;;;5109957;28;20064;-83
2021/07/24 12:51:14;;;;;;;4.15;3.05;;;21.80;52.30;;;;;;5109454;28;20044;-83
2021/07/24 12:53:50;;;;;;;4.20;2.90;;;21.90;52.40;;;;;;5111443;28;20055;-82
2021/07/24 12:56:19;;;;;;;7.22;3.38;;;21.90;52.30;;;;;;5116702;28;20048;-82
2021/07/24 12:58:46;;;;;;;6.57;3.25;;;22.00;52.50;;;;;;5121470;28;20046;-84
2021/07/24 13:01:15;;;;;;;6.85;3.30;;;22.30;52.60;;;;;;5116204;28;20052;-83
2021/07/24 13:03:43;;;;;;;7.60;3.10;;;22.50;52.50;;;;;;5112687;28;20040;-84
2021/07/24 13:06:16;;;;;;;5.50;2.88;;;22.60;52.00;;;;;;5133488;28;20039;-84
2021/07/24 13:08:44;;;;;;;3.90;3.17;;;22.70;51.20;;;;;;5131886;28;20047;-84
2021/07/24 13:11:11;;;;;;;4.80;3.10;;;22.80;51.30;;;;;;5130904;28;20039;-83
2021/07/24 13:13:40;;;;;;;9.02;3.17;;;23.30;51.20;;;;;;5131843;27;20059;-83
2021/07/24 13:16:08;;;;;;;5.80;3.00;;;23.60;49.80;;;;;;5122160;28;20125;-83
2021/07/24 13:18:36;;;;;;;5.35;3.08;;;23.90;49.70;;;;;;5111026;28;20072;-84
2021/07/24 13:21:04;;;;;;;4.75;2.70;;;24.50;48.40;;;;;;5108304;28;20047;-83
2021/07/24 13:23:32;;;;;;;5.65;2.67;;;25.30;47.30;;;;;;5106404;28;20056;-83
2021/07/24 13:28:13;;;;;;;6.53;2.97;;;26.20;45.10;;;;;;5093621;28;20411;-83
2021/07/24 13:28:53;;;;;;;7.38;3.10;;;26.90;44.00;;;;;;5095920;28;20036;-83
2021/07/24 13:31:22;;;;;;;5.47;3.13;;;27.50;42.70;;;;;;5093009;28;20055;-83
2021/07/24 13:33:51;;;;;;;5.32;2.55;;;28.10;42.40;;;;;;5077647;28;20058;-84
2021/07/24 13:36:19;;;;;;;5.03;2.90;;;28.70;40.40;;;;;;5077942;28;20044;-84
2021/07/24 13:38:48;;;;;;;7.43;2.53;;;29.00;39.60;;;;;;5093718;28;20176;-84
2021/07/24 13:41:16;;;;;;;4.97;3.00;;;29.10;38.50;;;;;;5096229;28;20052;-85
2021/07/24 13:43:43;;;;;;;4.28;3.00;;;28.80;38.70;;;;;;5095150;28;20376;-84
2021/07/24 13:46:11;;;;;;;4.20;2.88;;;28.70;38.50;;;;;;5076350;28;20052;-84
2021/07/24 13:48:39;;;;;;;4.35;2.83;;;28.80;38.40;;;;;;5094107;28;20048;-84
2021/07/24 13:51:06;;;;;;;4.60;2.97;;;29.30;38.00;;;;;;5094462;28;20055;-84
2021/07/24 13:53:34;;;;;;;6.93;3.13;;;29.60;36.70;;;;;;5094782;28;20063;-84
2021/07/24 13:56:02;;;;;;;4.00;2.70;;;29.40;36.50;;;;;;5094505;28;20506;-85
2021/07/24 13:58:29;;;;;;;5.80;2.60;;;29.50;36.40;;;;;;5093309;28;20514;-84
2021/07/24 14:00:57;;;;;;;3.85;3.00;;;29.30;36.20;;;;;;5094013;28;20055;-84
2021/07/24 14:03:25;;;;;;;3.80;2.90;;;28.60;36.70;;;;;;5094729;28;20052;-84
2021/07/24 14:06:00;;;;;;;7.82;2.80;;;27.90;37.80;;;;;;5093418;28;20040;-84
2021/07/24 14:08:29;;;;;;;7.07;2.85;;;27.70;38.30;;;;;;5095013;28;20130;-83
2021/07/24 14:10:57;;;;;;;6.15;2.80;;;27.80;38.80;;;;;;5093932;28;20044;-84
2021/07/24 14:13:25;;;;;;;6.03;2.90;;;28.50;38.30;;;;;;5092553;28;20052;-84
2021/07/24 14:15:53;;;;;;;4.90;2.97;;;28.90;37.20;;;;;;5093389;28;20040;-85
2021/07/24 14:18:27;;;;;;;6.35;2.92;;;29.30;37.00;;;;;;5094341;28;20059;-84
2021/07/24 14:20:55;;;;;;;6.47;2.65;;;29.80;36.30;;;;;;5059995;28;20056;-85
2021/07/24 14:23:23;;;;;;;5.10;2.58;;;30.30;36.00;;;;;;5093931;28;20044;-84
2021/07/24 14:25:50;;;;;;;4.10;2.88;;;31.00;34.60;;;;;;5094962;28;20036;-83
2021/07/24 14:28:18;;;;;;;5.05;3.17;;;31.10;33.80;;;;;;5094421;28;20036;-84
2021/07/24 14:30:46;;;;;;;5.07;2.92;;;30.60;33.90;;;;;;5093239;28;20048;-84
2021/07/24 14:33:14;;;;;;;4.82;2.70;;;30.50;34.10;;;;;;5093776;28;20387;-84
2021/07/24 14:35:41;;;;;;;5.80;2.80;;;30.40;34.40;;;;;;5091280;28;20048;-84
2021/07/24 14:38:09;;;;;;;8.23;2.63;;;30.20;34.30;;;;;;5093248;28;20071;-83
2021/07/24 14:40:42;;;;;;;5.78;2.83;;;29.70;34.50;;;;;;5092357;28;20052;-84
2021/07/24 14:43:10;;;;;;;3.83;2.75;;;29.30;34.90;;;;;;5092495;28;20039;-84
2021/07/24 14:45:39;;;;;;;5.53;2.60;;;29.40;35.20;;;;;;5091851;28;20040;-85
2021/07/24 14:48:06;;;;;;;5.63;3.00;;;30.00;34.80;;;;;;5058966;28;20056;-83
2021/07/24 14:50:38;;;;;;;5.72;2.80;;;30.50;34.30;;;;;;5092030;28;20475;-85
2021/07/24 14:53:06;;;;;;;4.63;2.60;;;31.10;33.60;;;;;;5092312;28;20059;-85
2021/07/24 14:55:35;;;;;;;6.68;2.80;;;31.60;32.90;;;;;;5091877;28;20498;-85
2021/07/24 14:58:04;;;;;;;5.68;2.58;;;31.70;32.20;;;;;;5093578;28;20055;-85
2021/07/24 15:00:32;;;;;;;7.90;2.50;;;31.80;32.40;;;;;;5093023;28;20055;-85
2021/07/24 15:03:00;;;;;;;3.67;2.60;;;32.10;31.90;;;;;;5093597;28;20498;-85
2021/07/24 15:05:28;;;;;;;4.47;2.72;;;32.30;31.50;;;;;;5093932;28;20055;-85
2021/07/24 15:07:56;;;;;;;4.30;2.53;;;32.30;31.50;;;;;;5091911;28;20040;-85
2021/07/24 15:10:24;;;;;;;3.67;2.28;;;32.30;31.10;;;;;;5074911;28;20044;-85
2021/07/24 15:12:58;;;;;;;6.45;2.40;;;32.20;31.30;;;;;;5092564;28;20509;-85
2021/07/24 15:15:26;;;;;;;6.18;2.33;;;32.00;31.30;;;;;;5092382;28;20052;-84
2021/07/24 15:17:54;;;;;;;2.53;2.28;;;31.80;31.50;;;;;;5092399;28;20043;-86
2021/07/24 15:20:22;;;;;;;4.80;2.47;;;31.80;31.60;;;;;;5091223;28;20051;-83
2021/07/24 15:22:49;;;;;;;8.05;2.47;;;32.10;31.10;;;;;;5092590;28;20048;-84
2021/07/24 15:25:17;;;;;;;4.25;2.58;;;32.20;30.60;;;;;;5092187;28;20047;-84
2021/07/24 15:27:47;;;;;;;5.50;2.67;;;32.20;30.60;;;;;;5084642;28;20055;-83
2021/07/24 15:30:15;;;;;;;5.70;2.72;;;32.30;30.50;;;;;;5092597;28;20063;-84
2021/07/24 15:32:42;;;;;;;5.38;2.75;;;32.30;30.40;;;;;;5094369;28;20044;-83
2021/07/24 15:35:11;;;;;;;7.10;2.78;;;32.20;30.40;;;;;;5095087;28;20044;-83
2021/07/24 15:37:41;;;;;;;4.60;2.97;;;32.00;30.60;;;;;;5094195;28;20048;-83
2021/07/24 15:40:10;;;;;;;3.22;2.50;;;32.10;30.60;;;;;;5091917;28;20510;-83
2021/07/24 15:42:38;;;;;;;4.50;2.60;;;32.20;30.40;;;;;;5090737;28;20051;-83
2021/07/24 15:45:06;;;;;;;4.00;2.80;;;32.20;30.20;;;;;;5092296;28;20063;-83
2021/07/24 15:47:34;;;;;;;7.72;2.50;;;32.30;30.30;;;;;;5090170;28;20055;-83
2021/07/24 15:50:03;;;;;;;6.78;2.55;;;32.60;30.40;;;;;;5092447;28;20036;-83
2021/07/24 15:52:34;;;;;;;4.40;2.53;;;32.80;30.10;;;;;;5092190;28;20051;-83
2021/07/24 15:55:02;;;;;;;4.57;2.50;;;32.80;30.20;;;;;;5092328;28;20383;-84
2021/07/24 15:57:31;;;;;;;2.88;2.50;;;32.50;30.30;;;;;;5091504;28;20043;-84
2021/07/24 15:59:59;;;;;;;6.93;2.67;;;32.00;30.50;;;;;;5090920;28;20043;-84
2021/07/24 16:02:27;;;;;;;3.58;2.40;;;31.50;31.00;;;;;;5092714;28;20055;-82
2021/07/24 16:04:55;;;;;;;6.85;2.30;;;30.80;31.80;;;;;;5091353;28;20044;-83
2021/07/24 16:07:23;;;;;;;4.43;2.40;;;30.70;32.30;;;;;;5073224;28;20055;-85
2021/07/24 16:09:51;;;;;;;4.68;2.40;;;30.30;32.70;;;;;;5091505;28;20048;-85
2021/07/24 16:12:19;;;;;;;4.50;2.47;;;29.70;33.60;;;;;;5091950;28;20043;-85
2021/07/24 16:14:47;;;;;;;3.63;2.90;;;29.30;34.30;;;;;;5091231;28;20044;-84
2021/07/24 16:17:18;;;;;;;6.63;2.85;;;29.30;34.60;;;;;;5072980;28;20040;-84
2021/07/24 16:19:46;;;;;;;4.35;2.65;;;29.20;34.80;;;;;;5089097;28;20052;-84
2021/07/24 16:22:14;;;;;;;4.53;2.80;;;29.60;34.90;;;;;;5091089;28;20392;-84
2021/07/24 16:24:41;;;;;;;4.72;2.70;;;29.90;34.80;;;;;;5090442;28;20325;-84
2021/07/24 16:27:11;;;;;;;5.43;3.00;;;30.20;34.30;;;;;;5089875;28;20456;-84
2021/07/24 16:29:38;;;;;;;3.20;2.58;;;29.70;34.30;;;;;;5092121;28;20047;-84
2021/07/24 16:32:07;;;;;;;5.40;2.63;;;29.00;35.20;;;;;;5091014;28;20036;-85
2021/07/24 16:34:35;;;;;;;5.55;2.80;;;28.30;36.20;;;;;;5091646;28;20044;-84
2021/07/24 16:37:03;;;;;;;5.00;2.90;;;27.80;37.10;;;;;;5090949;28;20055;-85
2021/07/24 16:39:34;;;;;;;5.10;2.67;;;27.10;38.10;;;;;;5090876;28;20053;-85
2021/07/24 16:42:02;;;;;;;5.63;3.00;;;26.50;39.30;;;;;;5091408;28;20514;-85
2021/07/24 16:44:30;;;;;;;6.43;2.50;;;26.00;40.20;;;;;;5091212;28;20538;-84
2021/07/24 16:46:57;;;;;;;8.18;3.00;;;25.60;41.00;;;;;;5091106;28;20046;-84
2021/07/24 16:49:25;;;;;;;3.95;2.90;;;25.30;41.80;;;;;;5089803;28;20044;-84
2021/07/24 16:51:53;;;;;;;5.22;3.17;;;25.00;42.50;;;;;;5090017;28;20043;-84
2021/07/24 16:54:20;;;;;;;8.38;3.00;;;24.80;43.10;;;;;;5089980;28;20048;-84
2021/07/24 16:56:48;;;;;;;4.63;2.70;;;24.40;43.80;;;;;;5090615;28;20047;-82
2021/07/24 16:59:16;;;;;;;5.50;3.17;;;24.20;44.20;;;;;;5090980;28;20605;-84
2021/07/24 17:01:47;;;;;;;7.03;3.00;;;24.10;44.60;;;;;;5093904;28;20517;-86
2021/07/24 17:04:15;;;;;;;6.28;2.95;;;24.00;44.90;;;;;;5094558;28;20051;-84
2021/07/24 17:06:45;;;;;;;7.40;4.03;;;23.90;45.30;;;;;;5095418;28;20032;-84
2021/07/24 17:09:15;;;;;;;7.68;3.42;;;23.70;45.40;;;;;;5091081;28;20063;-82
2021/07/24 17:11:43;;;;;;;6.75;3.28;;;23.60;45.90;;;;;;5095848;28;20059;-84
2021/07/24 17:14:15;;;;;;;10.02;3.75;;;23.50;46.20;;;;;;5094983;28;20399;-83
2021/07/24 17:16:44;;;;;;;6.57;3.50;;;23.40;46.60;;;;;;5097330;28;20048;-84
2021/07/24 17:19:12;;;;;;;10.10;3.47;;;23.40;46.60;;;;;;5097360;28;20047;-85
2021/07/24 17:21:40;;;;;;;5.47;3.00;;;23.40;46.70;;;;;;5097800;28;20055;-85
2021/07/24 17:24:07;;;;;;;5.78;3.50;;;23.30;47.00;;;;;;5096381;28;20044;-84
2021/07/24 17:26:35;;;;;;;9.38;4.20;;;23.30;47.20;;;;;;5096691;28;20044;-85
2021/07/24 17:29:04;;;;;;;9.43;4.22;;;23.20;47.20;;;;;;5095092;28;20470;-86
2021/07/24 17:31:32;;;;;;;6.95;3.55;;;23.10;47.40;;;;;;5096794;28;20063;-86
2021/07/24 17:34:00;;;;;;;6.13;3.80;;;23.10;47.50;;;;;;5098185;28;20048;-85
2021/07/24 17:36:28;;;;;;;9.88;4.03;;;23.20;47.50;;;;;;5096817;28;20056;-86
2021/07/24 17:38:57;;;;;;;6.75;3.38;;;23.10;47.50;;;;;;5096866;28;20051;-85
2021/07/24 17:41:25;;;;;;;11.15;3.83;;;23.10;47.80;;;;;;5094689;28;20051;-86
2021/07/24 17:43:52;;;;;;;8.43;4.10;;;23.00;48.10;;;;;;5094445;28;20048;-84
2021/07/24 17:46:20;;;;;;;7.88;4.53;;;23.00;48.20;;;;;;5095941;28;20047;-85
2021/07/24 17:48:48;;;;;;;8.48;4.15;;;22.90;48.60;;;;;;5094113;28;20078;-86
2021/07/24 17:51:21;;;;;;;7.70;3.72;;;22.80;48.90;;;;;;5097406;28;20043;-85
2021/07/24 17:53:49;;;;;;;7.70;4.10;;;22.70;49.10;;;;;;5107513;28;20051;-85
2021/07/24 17:56:20;;;;;;;6.40;4.10;;;22.70;49.30;;;;;;5102791;28;20498;-86
2021/07/24 17:58:50;;;;;;;8.88;3.97;;;22.50;49.40;;;;;;5097455;28;20055;-84
2021/07/24 18:01:24;;;;;;;8.35;4.22;;;22.30;49.70;;;;;;5095744;28;20434;-86
2021/07/24 18:03:53;;;;;;;5.30;3.80;;;22.20;50.00;;;;;;5094567;28;20044;-86
2021/07/24 18:06:24;;;;;;;6.65;4.55;;;22.20;50.10;;;;;;5095542;28;20047;-85
2021/07/24 18:08:53;;;;;;;10.93;4.35;;;22.30;50.20;;;;;;5097205;28;20062;-85
2021/07/24 18:11:22;;;;;;;5.68;4.18;;;22.40;50.00;;;;;;5094107;28;20406;-85
2021/07/24 18:13:51;;;;;;;7.75;3.90;;;22.50;49.70;;;;;;5095554;28;20060;-85
2021/07/24 18:16:21;;;;;;;6.32;3.45;;;22.50;49.70;;;;;;5094801;28;20048;-85
2021/07/24 18:18:49;;;;;;;6.28;3.30;;;22.50;49.90;;;;;;5098431;28;20050;-85
2021/07/24 18:21:19;;;;;;;9.40;3.88;;;22.60;49.80;;;;;;5100388;28;20066;-85
2021/07/24 18:23:48;;;;;;;5.32;3.45;;;22.50;49.80;;;;;;5095350;28;20070;-85
2021/07/24 18:26:18;;;;;;;6.90;3.70;;;22.40;50.00;;;;;;5097291;28;20055;-86
2021/07/24 18:28:46;;;;;;;6.25;3.70;;;22.30;50.30;;;;;;5081126;28;20044;-86
2021/07/24 18:31:16;;;;;;;8.38;3.67;;;22.20;50.60;;;;;;5100375;28;20036;-85
2021/07/24 18:33:44;;;;;;;5.80;3.70;;;22.10;50.90;;;;;;5100778;28;20067;-86
2021/07/24 18:36:12;;;;;;;5.30;3.25;;;22.00;51.30;;;;;;5079455;28;20067;-86
2021/07/24 18:38:43;;;;;;;6.05;3.20;;;21.90;51.50;;;;;;5096929;28;20044;-85
2021/07/24 18:41:11;;;;;;;4.78;3.28;;;21.80;51.80;;;;;;5096075;28;20051;-86
2021/07/24 18:43:38;;;;;;;7.55;3.70;;;21.70;52.20;;;;;;5096270;28;20040;-85
2021/07/24 18:46:08;;;;;;;7.22;3.30;;;21.50;52.50;;;;;;5096969;28;20058;-86
2021/07/24 18:48:39;;;;;;;8.27;3.33;;;21.40;52.80;;;;;;5094137;28;20040;-86
2021/07/24 18:51:07;;;;;;;5.78;3.28;;;21.30;52.90;;;;;;5073543;28;20048;-86
2021/07/24 18:53:36;;;;;;;5.43;3.28;;;21.30;53.10;;;;;;5094695;28;20044;-87
2021/07/24 18:56:07;;;;;;;5.07;2.97;;;21.10;53.20;;;;;;5093169;28;20040;-84
2021/07/24 18:58:35;;;;;;;7.65;3.80;;;21.10;53.50;;;;;;5091557;28;20384;-86
2021/07/24 19:01:15;;;;;;;7.78;4.60;;;21.00;53.70;;;;;;5096294;28;20313;-85
2021/07/24 19:03:46;;;;;;;12.73;6.90;;;21.00;54.00;;;;;;5097400;28;20036;-85
2021/07/24 19:06:22;;;;;;;6.07;3.70;;;20.90;54.20;;;;;;5082350;28;20052;-86
2021/07/24 19:08:50;;;;;;;18.90;11.57;;;20.80;54.50;;;;;;5098040;28;20398;-85
2021/07/24 19:11:22;;;;;;;7.45;5.82;;;20.70;54.60;;;;;;5102376;28;20055;-85
2021/07/24 19:13:50;;;;;;;7.68;3.83;;;20.50;54.90;;;;;;5100479;28;20067;-85
2021/07/24 19:16:22;;;;;;;8.23;3.78;;;20.50;55.30;;;;;;5097997;28;20048;-85
2021/07/24 19:18:56;;;;;;;3.78;3.40;;;20.40;55.70;;;;;;5097780;28;20051;-86
2021/07/24 19:21:26;;;;;;;9.63;3.45;;;20.40;55.80;;;;;;5099117;28;20048;-86
2021/07/24 19:23:54;;;;;;;8.90;3.50;;;20.30;55.90;;;;;;5099193;28;20059;-85
2021/07/24 19:26:33;;;;;;;7.68;3.70;;;20.30;55.90;;;;;;5096391;28;20055;-86
2021/07/24 19:29:08;;;;;;;7.40;3.38;;;20.30;56.20;;;;;;5096699;28;20502;-85
2021/07/24 19:31:36;;;;;;;4.25;3.50;;;20.20;56.40;;;;;;5097232;28;20051;-85
2021/07/24 19:34:06;;;;;;;6.40;3.55;;;20.10;56.50;;;;;;5097531;28;20441;-85
2021/07/24 19:36:38;;;;;;;6.63;3.58;;;20.00;56.80;;;;;;5095497;28;20047;-85
2021/07/24 19:39:06;;;;;;;5.28;3.20;;;19.90;57.20;;;;;;5097061;28;20048;-85
2021/07/24 19:41:36;;;;;;;7.22;3.30;;;19.80;57.50;;;;;;5097438;28;20055;-86
2021/07/24 19:44:04;;;;;;;6.57;2.92;;;19.80;57.90;;;;;;5099511;28;20059;-84
2021/07/24 19:46:33;;;;;;;5.57;3.13;;;19.70;58.20;;;;;;5097567;28;20486;-86
2021/07/24 19:49:03;;;;;;;4.68;3.20;;;19.60;58.50;;;;;;5098942;28;20048;-86
2021/07/24 19:51:31;;;;;;;4.43;3.50;;;19.50;58.90;;;;;;5081932;28;20040;-85
2021/07/24 19:54:01;;;;;;;5.55;3.38;;;19.40;59.20;;;;;;5097156;28;20051;-85
2021/07/24 19:56:28;;;;;;;6.78;3.30;;;19.30;59.60;;;;;;5096586;28;20063;-84
2021/07/24 19:58:56;;;;;;;6.18;3.60;;;19.20;59.90;;;;;;5096591;28;20044;-83
2021/07/24 20:01:24;;;;;;;6.95;3.88;;;19.10;60.30;;;;;;5093584;28;20044;-84
2021/07/24 20:03:52;;;;;;;7.70;3.72;;;19.00;60.50;;;;;;5096389;28;20074;-84
2021/07/24 20:06:21;;;;;;;5.28;3.25;;;18.90;60.70;;;;;;5096185;28;20055;-85
2021/07/24 20:08:49;;;;;;;7.43;3.45;;;18.80;61.00;;;;;;5097874;28;20047;-84
2021/07/24 20:11:18;;;;;;;5.05;3.35;;;18.70;61.20;;;;;;5097190;28;20130;-85
2021/07/24 20:13:51;;;;;;;13.35;3.90;;;18.60;61.70;;;;;;5096384;28;20067;-86
2021/07/24 20:16:19;;;;;;;5.30;3.75;;;18.60;61.90;;;;;;5099874;28;20071;-84
2021/07/24 20:18:48;;;;;;;8.90;4.13;;;18.50;62.00;;;;;;5100868;28;20047;-84
2021/07/24 20:21:16;;;;;;;4.32;3.72;;;18.40;62.20;;;;;;5097945;28;20051;-84
2021/07/24 20:23:50;;;;;;;8.80;3.88;;;18.40;62.30;;;;;;5097154;28;20061;-85
2021/07/24 20:26:22;;;;;;;9.10;4.03;;;18.30;62.50;;;;;;5095566;28;20044;-85
2021/07/24 20:28:50;;;;;;;6.10;3.97;;;18.30;62.70;;;;;;5094736;28;20399;-84
2021/07/24 20:31:17;;;;;;;7.28;3.83;;;18.30;62.80;;;;;;5094409;28;20505;-85
2021/07/24 20:33:45;;;;;;;7.40;4.03;;;18.20;63.00;;;;;;5095951;28;20051;-85
2021/07/24 20:36:16;;;;;;;6.95;3.60;;;18.20;63.10;;;;;;5099489;28;20406;-83
2021/07/24 20:38:44;;;;;;;6.03;3.88;;;18.20;63.10;;;;;;5098683;28;20044;-86
2021/07/24 20:41:11;;;;;;;10.02;4.22;;;18.10;63.40;;;;;;5098433;28;20048;-86
2021/07/24 20:43:39;;;;;;;7.15;3.75;;;18.00;63.70;;;;;;5099436;28;20084;-84
2021/07/24 20:46:10;;;;;;;8.18;3.95;;;17.90;64.00;;;;;;5100238;28;20382;-84
2021/07/24 20:48:38;;;;;;;4.78;3.45;;;17.90;64.20;;;;;;5099243;28;20052;-84
2021/07/24 20:51:06;;;;;;;6.18;3.97;;;17.90;64.30;;;;;;5099438;28;20406;-86
2021/07/24 20:53:34;;;;;;;8.27;3.92;;;17.80;64.60;;;;;;5097658;28;20048;-85
2021/07/24 20:56:05;;;;;;;6.70;3.90;;;17.80;64.80;;;;;;5077865;28;20060;-83
2021/07/24 20:58:38;;;;;;;13.10;4.18;;;17.80;65.00;;;;;;5062031;28;20490;-84
2021/07/24 21:01:12;;;;;;;5.90;4.22;;;17.70;65.20;;;;;;5095078;28;20044;-84
2021/07/24 21:03:40;;;;;;;7.13;3.90;;;17.70;65.40;;;;;;5096576;28;20056;-85
2021/07/24 21:06:19;;;;;;;8.10;3.85;;;17.60;65.50;;;;;;5071973;28;20053;-83
2021/07/24 21:08:47;;;;;;;8.50;4.38;;;17.50;66.00;;;;;;5094091;28;20051;-84
2021/07/24 21:11:16;;;;;;;4.63;4.22;;;17.50;66.10;;;;;;5079488;28;20048;-85
2021/07/24 21:13:45;;;;;;;7.53;4.40;;;17.40;66.30;;;;;;5096853;28;20047;-84
2021/07/24 21:16:17;;;;;;;7.13;4.18;;;17.40;66.60;;;;;;5097162;28;20055;-84
2021/07/24 21:18:51;;;;;;;6.13;4.65;;;17.30;66.70;;;;;;5093323;28;20410;-76
2021/07/24 21:21:21;;;;;;;8.88;4.43;;;17.30;67.00;;;;;;5092685;28;20040;-75
2021/07/24 21:23:49;;;;;;;6.72;4.68;;;17.30;67.10;;;;;;5093448;28;20044;-76
2021/07/24 21:26:19;;;;;;;5.55;4.53;;;17.30;67.30;;;;;;5092662;28;20475;-75
2021/07/24 21:28:47;;;;;;;8.43;5.15;;;17.20;67.50;;;;;;5093729;28;20047;-75
2021/07/24 21:31:15;;;;;;;7.78;4.88;;;17.10;67.70;;;;;;5093661;28;20063;-76
2021/07/24 21:34:00;;;;;;;;;;;17.10;67.80;;;;;;5089058;28;20051;-76
2021/07/24 21:36:28;;;;;;;7.60;5.10;;;17.00;67.90;;;;;;5094581;28;19935;-77
2021/07/24 21:38:56;;;;;;;8.35;5.32;;;17.00;67.90;;;;;;5094637;28;20048;-76
2021/07/24 21:41:25;;;;;;;9.07;5.10;;;17.00;68.20;;;;;;5093957;28;20036;-77
2021/07/24 21:43:54;;;;;;;9.57;5.40;;;17.00;68.50;;;;;;5090426;28;20495;-77
2021/07/24 21:46:21;;;;;;;10.98;5.55;;;16.90;68.60;;;;;;5082526;28;20043;-76
2021/07/24 21:48:49;;;;;;;7.78;4.70;;;16.90;68.80;;;;;;5092833;28;20036;-75
2021/07/24 21:51:24;;;;;;;8.23;4.80;;;16.90;68.90;;;;;;5093830;28;20040;-75
2021/07/24 21:53:52;;;;;;;7.07;5.10;;;16.90;69.00;;;;;;5091111;28;20051;-75
2021/07/24 21:56:20;;;;;;;8.82;5.05;;;16.90;69.00;;;;;;5075215;28;20040;-75
2021/07/24 21:58:47;;;;;;;12.43;5.00;;;16.90;69.10;;;;;;5092902;28;20044;-76
2021/07/24 22:01:18;;;;;;;10.30;5.05;;;16.90;69.20;;;;;;5092903;28;20044;-76
2021/07/24 22:03:47;;;;;;;12.95;5.60;;;16.90;69.40;;;;;;5090911;28;20059;-75
2021/07/24 22:06:15;;;;;;;10.20;5.75;;;16.80;69.50;;;;;;5092713;28;20402;-75
2021/07/24 22:08:44;;;;;;;10.80;6.25;;;16.80;69.60;;;;;;5086702;28;20052;-75
2021/07/24 22:11:12;;;;;;;9.20;5.88;;;16.80;69.70;;;;;;5093545;28;20055;-75
2021/07/24 22:13:41;;;;;;;12.38;6.00;;;16.80;69.80;;;;;;5091434;28;20059;-75
2021/07/24 22:16:14;;;;;;;8.45;5.18;;;16.80;69.90;;;;;;5091413;28;20044;-75
2021/07/24 22:18:42;;;;;;;10.15;5.80;;;16.80;70.00;;;;;;5090559;28;20044;-75
2021/07/24 22:21:10;;;;;;;8.98;5.82;;;16.80;70.10;;;;;;5090777;28;20040;-75
2021/07/24 22:23:37;;;;;;;9.57;6.22;;;16.80;70.10;;;;;;5092795;28;20044;-76
2021/07/24 22:26:06;;;;;;;6.70;5.45;;;16.80;70.20;;;;;;5093349;28;20036;-76
2021/07/24 22:28:34;;;;;;;9.80;5.63;;;16.80;70.30;;;;;;5092179;28;20398;-76
2021/07/24 22:31:02;;;;;;;10.05;6.43;;;16.80;70.30;;;;;;5093448;28;20395;-76
2021/07/24 22:33:31;;;;;;;9.05;6.10;;;16.80;70.50;;;;;;5092982;28;20410;-76
2021/07/24 22:35:59;;;;;;;13.00;5.78;;;16.70;70.60;;;;;;5074658;28;20414;-76
2021/07/24 22:38:27;;;;;;;8.27;6.07;;;16.80;70.60;;;;;;5093052;28;20075;-77
2021/07/24 22:40:55;;;;;;;7.85;5.63;;;16.70;70.60;;;;;;5092461;28;20043;-77
2021/07/24 22:43:23;;;;;;;11.73;6.15;;;16.70;70.80;;;;;;5091703;28;20056;-77
2021/07/24 22:45:51;;;;;;;10.52;6.47;;;16.70;70.90;;;;;;5072067;28;20048;-77
2021/07/24 22:48:19;;;;;;;11.15;6.20;;;16.70;71.00;;;;;;5091680;28;20055;-77
2021/07/24 22:50:47;;;;;;;11.40;6.75;;;16.60;71.10;;;;;;5091698;28;20040;-76
2021/07/24 22:53:14;;;;;;;11.32;6.72;;;16.60;71.20;;;;;;5093114;28;20055;-76
2021/07/24 22:55:43;;;;;;;12.52;6.40;;;16.60;71.20;;;;;;5092109;28;20482;-76
2021/07/24 22:58:10;;;;;;;14.90;6.85;;;16.60;71.30;;;;;;5073483;28;20411;-76
2021/07/24 23:00:39;;;;;;;12.82;6.97;;;16.50;71.40;;;;;;5093180;28;20055;-76
2021/07/24 23:03:07;;;;;;;12.02;7.20;;;16.50;71.40;;;;;;5091901;28;20051;-76
2021/07/24 23:05:36;;;;;;;15.20;7.20;;;16.50;71.40;;;;;;5092000;28;20050;-76
2021/07/24 23:08:04;;;;;;;15.10;7.32;;;16.50;71.50;;;;;;5092449;28;20040;-76
2021/07/24 23:10:31;;;;;;;11.40;7.95;;;16.50;71.60;;;;;;5091571;28;20048;-76
2021/07/24 23:13:01;;;;;;;9.30;7.10;;;16.50;71.80;;;;;;5090167;28;20051;-76
2021/07/24 23:15:29;;;;;;;10.82;7.47;;;16.50;71.90;;;;;;5091621;28;20402;-76
2021/07/24 23:17:57;;;;;;;13.85;7.70;;;16.50;72.00;;;;;;5091917;28;20063;-76
2021/07/24 23:20:27;;;;;;;12.73;7.68;;;16.40;72.10;;;;;;5093052;28;20055;-76
2021/07/24 23:22:54;;;;;;;11.73;8.13;;;16.40;72.10;;;;;;5090569;28;20060;-76
2021/07/24 23:25:22;;;;;;;14.43;7.82;;;16.40;72.20;;;;;;5089697;28;20040;-76
2021/07/24 23:27:50;;;;;;;12.02;8.40;;;16.40;72.40;;;;;;5092789;28;20481;-76
2021/07/24 23:30:19;;;;;;;15.10;8.35;;;16.40;72.60;;;;;;5091408;28;20040;-76
2021/07/24 23:32:47;;;;;;;13.95;8.73;;;16.30;72.60;;;;;;5091998;28;20039;-76
2021/07/24 23:35:15;;;;;;;9.73;8.07;;;16.30;72.70;;;;;;5091741;28;20063;-76
2021/07/24 23:37:43;;;;;;;13.23;8.48;;;16.30;72.80;;;;;;5090964;28;20036;-75
2021/07/24 23:40:12;;;;;;;11.77;9.07;;;16.30;72.90;;;;;;5091150;28;20044;-75
2021/07/24 23:42:41;;;;;;;16.52;9.55;;;16.30;73.00;;;;;;5092655;28;20044;-75
2021/07/24 23:45:10;;;;;;;14.50;9.07;;;16.30;73.20;;;;;;5092130;28;20044;-75
2021/07/24 23:47:37;;;;;;;14.48;9.25;;;16.30;73.20;;;;;;5091024;28;20414;-75
2021/07/24 23:50:07;;;;;;;12.50;9.07;;;16.30;73.30;;;;;;5090974;28;20048;-75
2021/07/24 23:52:41;;;;;;;17.42;9.85;;;16.30;73.40;;;;;;5091869;28;20032;-75
2021/07/24 23:55:09;;;;;;;17.73;9.13;;;16.30;73.40;;;;;;5076253;28;20407;-75
2021/07/24 23:57:37;;;;;;;15.50;8.82;;;16.30;73.40;;;;;;5073498;28;20475;-75
